createdAt,value
2018-09-09T00:00:49.904Z,6.90
2018-09-09T00:03:18.173Z,6.27
2018-09-09T00:05:46.433Z,6.23
2018-09-09T00:08:14.719Z,6.10
2018-09-09T00:10:43.044Z,7.77
2018-09-09T00:13:11.288Z,5.60
2018-09-09T00:15:39.521Z,7.30
2018-09-09T00:18:07.797Z,6.50
2018-09-09T00:20:36.057Z,6.87
2018-09-09T00:23:04.353Z,6.10
2018-09-09T00:25:32.798Z,5.83
2018-09-09T00:28:01.093Z,6.50
2018-09-09T00:30:29.345Z,6.00
2018-09-09T00:32:57.658Z,7.10
2018-09-09T00:35:25.905Z,6.50
2018-09-09T00:37:54.177Z,5.87
2018-09-09T00:40:22.421Z,6.83
2018-09-09T00:42:50.713Z,6.57
2018-09-09T00:45:18.989Z,6.10
2018-09-09T00:47:47.277Z,6.57
2018-09-09T00:50:20.849Z,6.50
2018-09-09T00:52:54.507Z,6.57
2018-09-09T00:55:22.751Z,6.70
2018-09-09T00:57:51.066Z,6.70
2018-09-09T01:00:26.470Z,7.07
2018-09-09T01:02:54.866Z,6.10
2018-09-09T01:05:23.133Z,7.50
2018-09-09T01:07:51.461Z,6.43
2018-09-09T01:10:19.717Z,7.10
2018-09-09T01:12:47.973Z,5.83
2018-09-09T01:15:16.248Z,7.27
2018-09-09T01:17:44.509Z,6.60
2018-09-09T01:20:12.798Z,6.40
2018-09-09T01:22:41.059Z,6.07
2018-09-09T01:25:09.335Z,6.40
2018-09-09T01:27:37.585Z,6.57
2018-09-09T01:30:05.912Z,6.60
2018-09-09T01:32:34.152Z,5.53
2018-09-09T01:35:02.423Z,6.10
2018-09-09T01:37:30.673Z,6.93
2018-09-09T01:39:58.949Z,6.00
2018-09-09T01:42:27.208Z,6.37
2018-09-09T01:44:55.476Z,6.53
2018-09-09T01:47:23.723Z,6.53
2018-09-09T01:49:52.185Z,6.30
2018-09-09T01:52:20.422Z,6.23
2018-09-09T01:54:49.695Z,5.83
2018-09-09T01:57:17.975Z,6.67
2018-09-09T01:59:46.245Z,5.00
2018-09-09T02:02:14.532Z,6.40
2018-09-09T02:04:42.788Z,7.10
2018-09-09T02:07:11.064Z,6.10
2018-09-09T02:09:39.313Z,6.30
2018-09-09T02:12:07.591Z,6.17
2018-09-09T02:14:35.836Z,6.50
2018-09-09T02:17:04.141Z,6.80
2018-09-09T02:19:32.409Z,6.10
2018-09-09T02:22:00.753Z,6.17
2018-09-09T02:24:29.242Z,5.93
2018-09-09T02:26:57.561Z,6.77
2018-09-09T02:29:25.816Z,7.77
2018-09-09T02:31:54.097Z,6.10
2018-09-09T02:34:22.371Z,6.37
2018-09-09T02:36:50.688Z,6.60
2018-09-09T02:39:18.944Z,6.53
2018-09-09T02:41:47.286Z,6.90
2018-09-09T02:44:15.626Z,7.00
2018-09-09T02:46:43.881Z,7.93
2018-09-09T02:49:12.179Z,7.07
2018-09-09T02:51:41.525Z,6.77
2018-09-09T02:54:09.817Z,6.33
2018-09-09T02:56:38.091Z,6.27
2018-09-09T02:59:06.389Z,6.50
2018-09-09T03:01:34.700Z,6.33
2018-09-09T03:04:02.986Z,6.73
2018-09-09T03:06:31.279Z,6.80
2018-09-09T03:08:59.573Z,7.50
2018-09-09T03:11:27.841Z,6.37
2018-09-09T03:13:56.181Z,6.37
2018-09-09T03:16:24.449Z,7.90
2018-09-09T03:18:52.801Z,7.40
2018-09-09T03:21:21.190Z,7.97
2018-09-09T03:23:49.485Z,8.50
2018-09-09T03:26:17.738Z,8.27
2018-09-09T03:28:46.098Z,8.60
2018-09-09T03:31:14.393Z,8.80
2018-09-09T03:33:42.693Z,9.53
2018-09-09T03:36:10.947Z,8.97
2018-09-09T03:38:39.265Z,7.97
2018-09-09T03:41:08.545Z,9.77
2018-09-09T03:43:36.817Z,8.70
2018-09-09T03:46:05.226Z,8.83
2018-09-09T03:48:33.493Z,10.63
2018-09-09T03:51:02.885Z,9.80
2018-09-09T03:53:31.175Z,10.20
2018-09-09T03:55:59.469Z,10.37
2018-09-09T03:58:27.732Z,9.67
2018-09-09T04:00:56.064Z,11.00
2018-09-09T04:03:24.358Z,10.47
2018-09-09T04:05:52.689Z,11.47
2018-09-09T04:08:20.973Z,11.47
2018-09-09T04:10:49.316Z,12.07
2018-09-09T04:13:17.593Z,10.07
2018-09-09T04:15:45.893Z,11.50
2018-09-09T04:18:15.272Z,11.10
2018-09-09T04:20:43.637Z,11.47
2018-09-09T04:23:11.907Z,11.80
2018-09-09T04:25:40.217Z,11.27
2018-09-09T04:28:08.481Z,11.30
2018-09-09T04:30:36.761Z,12.23
2018-09-09T04:33:05.061Z,11.73
2018-09-09T04:35:33.321Z,12.77
2018-09-09T04:38:01.616Z,13.30
2018-09-09T04:40:29.929Z,12.23
2018-09-09T04:42:58.267Z,11.90
2018-09-09T04:45:26.529Z,12.43
2018-09-09T04:47:54.820Z,13.37
2018-09-09T04:50:24.001Z,12.20
2018-09-09T04:52:52.293Z,12.40
2018-09-09T04:55:20.567Z,12.40
2018-09-09T04:57:49.941Z,13.17
2018-09-09T05:00:18.231Z,12.70
2018-09-09T05:02:46.573Z,13.87
2018-09-09T05:05:14.929Z,12.73
2018-09-09T05:07:43.225Z,12.37
2018-09-09T05:10:11.544Z,13.50
2018-09-09T05:12:40.137Z,12.93
2018-09-09T05:15:08.405Z,11.40
2018-09-09T05:17:36.720Z,11.73
2018-09-09T05:20:05.230Z,11.97
2018-09-09T05:22:33.641Z,13.83
2018-09-09T05:25:01.918Z,12.73
2018-09-09T05:27:30.400Z,11.63
2018-09-09T05:29:58.702Z,12.50
2018-09-09T05:32:27.004Z,13.07
2018-09-09T05:34:55.553Z,13.07
2018-09-09T05:37:23.838Z,12.97
2018-09-09T05:39:52.136Z,12.77
2018-09-09T05:42:20.452Z,12.90
2018-09-09T05:44:48.780Z,12.30
2018-09-09T05:47:18.015Z,13.50
2018-09-09T05:49:47.313Z,12.20
2018-09-09T05:52:15.589Z,13.07
2018-09-09T05:54:43.905Z,11.23
2018-09-09T05:57:12.181Z,13.00
2018-09-09T05:59:40.504Z,12.93
2018-09-09T06:02:09.895Z,13.70
2018-09-09T06:04:38.192Z,12.83
2018-09-09T06:07:06.797Z,12.20
2018-09-09T06:09:35.097Z,12.27
2018-09-09T06:12:03.410Z,11.40
2018-09-09T06:14:31.796Z,12.13
2018-09-09T06:17:00.098Z,12.20
2018-09-09T06:19:28.408Z,11.43
2018-09-09T06:21:56.729Z,11.50
2018-09-09T06:24:25.035Z,11.60
2018-09-09T06:26:53.329Z,12.20
2018-09-09T06:29:21.591Z,11.90
2018-09-09T06:31:49.913Z,11.73
2018-09-09T06:34:18.189Z,12.37
2018-09-09T06:36:46.512Z,11.13
2018-09-09T06:39:14.793Z,10.33
2018-09-09T06:41:43.105Z,9.80
2018-09-09T06:44:11.469Z,9.27
2018-09-09T06:46:39.784Z,9.37
2018-09-09T06:49:08.393Z,9.70
2018-09-09T06:51:36.681Z,8.07
2018-09-09T06:54:04.989Z,9.03
2018-09-09T06:56:33.554Z,9.17
2018-09-09T06:59:02.113Z,8.73
2018-09-09T07:01:30.737Z,8.43
2018-09-09T07:04:02.235Z,9.80
2018-09-09T07:06:30.534Z,8.47
2018-09-09T07:08:58.791Z,8.10
2018-09-09T07:11:27.225Z,7.80
2018-09-09T07:13:55.409Z,7.50
2018-09-09T07:16:23.732Z,8.17
2018-09-09T07:18:52.029Z,6.13
2018-09-09T07:21:20.310Z,7.83
2018-09-09T07:23:48.620Z,7.50
2018-09-09T07:26:17.945Z,7.87
2018-09-09T07:28:46.273Z,7.10
2018-09-09T07:31:14.615Z,6.80
2018-09-09T07:33:42.881Z,6.37
2018-09-09T07:36:12.248Z,6.60
2018-09-09T07:38:40.548Z,6.90
2018-09-09T07:41:08.817Z,7.07
2018-09-09T07:43:37.104Z,6.60
2018-09-09T07:46:05.385Z,6.50
2018-09-09T07:48:33.718Z,7.10
2018-09-09T07:51:02.007Z,6.60
2018-09-09T07:53:30.413Z,6.83
2018-09-09T07:55:58.718Z,6.43
2018-09-09T07:58:27.078Z,7.50
2018-09-09T08:00:55.353Z,6.53
2018-09-09T08:03:23.698Z,6.40
2018-09-09T08:05:52.014Z,5.60
2018-09-09T08:08:20.286Z,6.43
2018-09-09T08:10:48.661Z,6.90
2018-09-09T08:13:16.959Z,5.87
2018-09-09T08:15:45.270Z,6.33
2018-09-09T08:18:13.559Z,6.03
2018-09-09T08:20:41.845Z,6.00
2018-09-09T08:23:10.233Z,6.83
2018-09-09T08:25:38.538Z,7.27
2018-09-09T08:28:06.866Z,6.40
2018-09-09T08:30:35.192Z,6.50
2018-09-09T08:33:03.463Z,6.67
2018-09-09T08:35:31.785Z,6.50
2018-09-09T08:38:00.062Z,6.47
2018-09-09T08:40:28.374Z,6.30
2018-09-09T08:42:56.706Z,5.90
2018-09-09T08:45:25.065Z,6.33
2018-09-09T08:47:53.313Z,5.77
2018-09-09T08:50:22.638Z,6.23
2018-09-09T08:52:50.930Z,5.50
2018-09-09T08:55:20.357Z,5.97
2018-09-09T08:57:48.655Z,6.63
2018-09-09T09:00:16.985Z,6.30
2018-09-09T09:02:45.285Z,5.90
2018-09-09T09:05:13.580Z,7.07
2018-09-09T09:07:43.055Z,7.07
2018-09-09T09:10:11.264Z,6.77
2018-09-09T09:12:39.579Z,6.63
2018-09-09T09:15:07.885Z,6.70
2018-09-09T09:17:36.209Z,5.77
2018-09-09T09:20:04.576Z,7.47
2018-09-09T09:22:32.897Z,7.07
2018-09-09T09:25:01.177Z,6.80
2018-09-09T09:27:29.482Z,6.23
2018-09-09T09:29:58.720Z,6.23
2018-09-09T09:32:27.058Z,6.87
2018-09-09T09:34:56.198Z,6.70
2018-09-09T09:37:25.513Z,7.50
2018-09-09T09:39:54.805Z,6.37
2018-09-09T09:42:23.548Z,7.63
2018-09-09T09:44:51.860Z,8.23
2018-09-09T09:47:20.157Z,6.73
2018-09-09T09:49:48.414Z,7.13
2018-09-09T09:52:16.743Z,7.27
2018-09-09T09:54:45.033Z,7.50
2018-09-09T09:57:14.401Z,7.10
2018-09-09T09:59:42.694Z,6.10
2018-09-09T10:02:10.991Z,9.23
2018-09-09T10:04:39.306Z,6.97
2018-09-09T10:07:07.593Z,7.10
2018-09-09T10:09:35.985Z,7.43
2018-09-09T10:12:04.303Z,6.47
2018-09-09T10:14:33.660Z,6.13
2018-09-09T10:17:02.112Z,5.93
2018-09-09T10:19:30.424Z,6.80
2018-09-09T10:22:01.160Z,5.33
2018-09-09T10:24:29.580Z,7.10
2018-09-09T10:26:57.849Z,6.90
2018-09-09T10:29:26.133Z,6.27
2018-09-09T10:31:54.432Z,5.83
2018-09-09T10:34:22.767Z,7.30
2018-09-09T10:36:51.050Z,7.13
2018-09-09T10:39:19.342Z,6.17
2018-09-09T10:41:47.617Z,5.00
2018-09-09T10:44:16.943Z,5.10
2018-09-09T10:46:46.395Z,4.47
2018-09-09T10:49:16.681Z,5.73
2018-09-09T10:51:44.961Z,6.27
2018-09-09T10:54:13.233Z,5.87
2018-09-09T10:56:41.541Z,6.17
2018-09-09T10:59:09.817Z,5.87
2018-09-09T11:01:38.156Z,6.03
2018-09-09T11:04:06.432Z,6.23
2018-09-09T11:06:34.811Z,4.73
2018-09-09T11:09:03.417Z,5.27
2018-09-09T11:11:32.776Z,4.27
2018-09-09T11:14:01.033Z,4.33
2018-09-09T11:16:29.355Z,4.07
2018-09-09T11:18:57.636Z,4.70
2018-09-09T11:21:25.978Z,3.53
2018-09-09T11:23:54.237Z,3.57
2018-09-09T11:26:22.524Z,4.50
2018-09-09T11:28:50.881Z,3.73
2018-09-09T11:31:19.169Z,3.70
2018-09-09T11:33:47.577Z,4.20
2018-09-09T11:36:16.487Z,6.83
2018-09-09T11:38:45.185Z,4.17
2018-09-09T11:41:14.515Z,5.03
2018-09-09T11:43:42.797Z,3.70
2018-09-09T11:46:11.065Z,3.73
2018-09-09T11:48:39.433Z,3.50
2018-09-09T11:51:07.718Z,3.63
2018-09-09T11:53:36.014Z,3.77
2018-09-09T11:56:04.322Z,3.60
2018-09-09T11:58:32.627Z,3.83
2018-09-09T12:01:03.051Z,4.33
2018-09-09T12:03:31.406Z,4.17
2018-09-09T12:05:59.693Z,3.77
2018-09-09T12:08:28.105Z,3.07
2018-09-09T12:10:57.441Z,3.33
2018-09-09T12:13:25.761Z,3.40
2018-09-09T12:15:54.049Z,3.77
2018-09-09T12:18:22.421Z,3.27
2018-09-09T12:20:50.705Z,3.07
2018-09-09T12:23:19.074Z,3.50
2018-09-09T12:25:47.322Z,3.17
2018-09-09T12:28:15.605Z,3.10
2018-09-09T12:30:43.917Z,2.90
2018-09-09T12:33:12.529Z,3.03
2018-09-09T12:35:40.793Z,3.73
2018-09-09T12:38:09.056Z,3.20
2018-09-09T12:40:37.415Z,2.97
2018-09-09T12:43:11.046Z,3.57
2018-09-09T12:45:44.786Z,2.90
2018-09-09T12:48:18.457Z,2.70
2018-09-09T12:50:46.741Z,2.80
2018-09-09T12:53:16.044Z,3.07
2018-09-09T12:55:44.365Z,2.70
2018-09-09T12:58:12.664Z,3.40
2018-09-09T13:00:41.081Z,2.77
2018-09-09T13:03:09.441Z,3.20
2018-09-09T13:05:37.845Z,2.60
2018-09-09T13:08:06.422Z,2.70
2018-09-09T13:10:34.941Z,3.07
2018-09-09T13:13:08.327Z,2.20
2018-09-09T13:15:36.787Z,2.50
2018-09-09T13:18:06.312Z,2.50
2018-09-09T13:20:35.629Z,3.03
2018-09-09T13:23:03.909Z,1.90
2018-09-09T13:25:32.233Z,2.67
2018-09-09T13:28:00.521Z,2.10
2018-09-09T13:30:29.841Z,2.20
2018-09-09T13:32:58.137Z,3.70
2018-09-09T13:35:26.426Z,2.07
2018-09-09T13:37:54.722Z,2.70
2018-09-09T13:40:23.072Z,2.40
2018-09-09T13:42:51.375Z,2.33
2018-09-09T13:45:19.670Z,2.53
2018-09-09T13:47:48.003Z,2.40
2018-09-09T13:50:16.286Z,2.23
2018-09-09T13:52:45.589Z,2.20
2018-09-09T13:55:13.861Z,1.90
2018-09-09T13:57:42.241Z,1.73
2018-09-09T14:03:42.348Z,1.63
2018-09-09T14:06:10.702Z,1.77
2018-09-09T14:08:38.980Z,2.20
2018-09-09T14:11:07.361Z,1.67
2018-09-09T14:13:35.661Z,1.40
2018-09-09T14:16:03.926Z,1.53
2018-09-09T14:18:32.243Z,1.73
2018-09-09T14:21:00.493Z,2.10
2018-09-09T14:23:28.826Z,2.00
2018-09-09T14:25:57.118Z,2.00
2018-09-09T14:28:25.409Z,1.50
2018-09-09T14:30:53.669Z,1.73
2018-09-09T14:33:21.973Z,1.90
2018-09-09T14:35:52.281Z,1.63
2018-09-09T14:38:20.637Z,1.47
2018-09-09T14:40:48.913Z,1.40
2018-09-09T14:43:17.231Z,1.83
2018-09-09T14:45:45.497Z,1.60
2018-09-09T14:48:13.840Z,1.30
2018-09-09T14:50:42.122Z,2.10
2018-09-09T14:53:10.603Z,1.57
2018-09-09T14:55:38.817Z,1.40
2018-09-09T14:58:07.168Z,2.47
2018-09-09T15:00:35.461Z,1.90
2018-09-09T15:03:03.826Z,1.47
2018-09-09T15:05:32.146Z,1.80
2018-09-09T15:08:00.421Z,1.67
2018-09-09T15:10:29.813Z,1.77
2018-09-09T15:12:59.192Z,1.77
2018-09-09T15:15:27.506Z,2.03
2018-09-09T15:17:55.789Z,1.90
2018-09-09T15:20:24.159Z,2.30
2018-09-09T15:22:52.462Z,2.40
2018-09-09T15:25:20.761Z,2.70
2018-09-09T15:27:49.049Z,2.17
2018-09-09T15:30:17.349Z,2.30
2018-09-09T15:32:45.614Z,2.03
2018-09-09T15:35:13.947Z,2.50
2018-09-09T15:37:43.009Z,1.70
2018-09-09T15:40:11.477Z,2.97
2018-09-09T15:42:39.757Z,2.40
2018-09-09T15:45:08.121Z,2.77
2018-09-09T15:47:36.389Z,3.10
2018-09-09T15:50:04.698Z,2.33
2018-09-09T15:52:33.052Z,2.60
2018-09-09T15:55:01.316Z,2.10
2018-09-09T15:57:29.675Z,2.67
2018-09-09T15:59:57.939Z,2.50
2018-09-09T16:02:26.260Z,2.20
2018-09-09T16:04:54.887Z,2.67
2018-09-09T16:07:23.370Z,2.63
2018-09-09T16:09:51.493Z,2.50
2018-09-09T16:12:19.774Z,2.73
2018-09-09T16:14:48.073Z,3.47
2018-09-09T16:17:16.393Z,3.70
2018-09-09T16:19:45.689Z,4.07
2018-09-09T16:22:14.010Z,4.30
2018-09-09T16:24:42.315Z,4.20
2018-09-09T16:27:10.605Z,3.93
2018-09-09T16:29:38.853Z,3.40
2018-09-09T16:32:07.136Z,4.10
2018-09-09T16:34:35.397Z,4.17
2018-09-09T16:37:03.692Z,3.27
2018-09-09T16:39:32.054Z,3.40
2018-09-09T16:42:00.241Z,3.90
2018-09-09T16:44:28.701Z,4.20
2018-09-09T16:46:56.967Z,4.90
2018-09-09T16:49:25.277Z,4.40
2018-09-09T16:51:53.544Z,4.17
2018-09-09T16:54:21.818Z,4.77
2018-09-09T16:56:50.225Z,3.77
2018-09-09T16:59:18.534Z,3.90
2018-09-09T17:01:46.857Z,4.60
2018-09-09T17:04:15.137Z,4.17
2018-09-09T17:06:43.412Z,4.20
2018-09-09T17:09:12.281Z,4.43
2018-09-09T17:11:40.937Z,4.37
2018-09-09T17:14:09.500Z,4.10
2018-09-09T17:16:37.901Z,4.10
2018-09-09T17:19:06.193Z,3.90
2018-09-09T17:21:34.454Z,4.30
2018-09-09T17:24:02.754Z,4.43
2018-09-09T17:26:31.045Z,5.03
2018-09-09T17:28:59.329Z,4.60
2018-09-09T17:31:27.609Z,6.60
2018-09-09T17:33:56.041Z,5.53
2018-09-09T17:36:24.406Z,4.17
2018-09-09T17:38:52.761Z,4.53
2018-09-09T17:41:21.137Z,4.50
2018-09-09T17:43:49.389Z,5.00
2018-09-09T17:46:17.689Z,5.40
2018-09-09T17:48:46.030Z,5.70
2018-09-09T17:51:14.308Z,5.20
2018-09-09T17:53:42.569Z,5.87
2018-09-09T17:56:10.869Z,5.67
2018-09-09T17:58:39.159Z,5.37
2018-09-09T18:01:07.473Z,6.13
2018-09-09T18:03:35.753Z,5.10
2018-09-09T18:06:04.074Z,7.57
2018-09-09T18:08:32.374Z,7.97
2018-09-09T18:11:00.712Z,6.40
2018-09-09T18:13:28.961Z,5.33
2018-09-09T18:15:57.321Z,6.10
2018-09-09T18:18:25.886Z,6.70
2018-09-09T18:20:54.272Z,5.67
2018-09-09T18:23:22.521Z,5.10
2018-09-09T18:25:50.794Z,5.60
2018-09-09T18:28:19.105Z,5.73
2018-09-09T18:30:47.454Z,6.13
2018-09-09T18:33:15.749Z,5.87
2018-09-09T18:35:44.671Z,6.07
2018-09-09T18:38:12.977Z,6.30
2018-09-09T18:40:41.298Z,6.27
2018-09-09T18:43:09.744Z,5.73
2018-09-09T18:45:38.163Z,5.10
2018-09-09T18:48:06.459Z,5.53
2018-09-09T18:50:34.737Z,5.07
2018-09-09T18:53:03.020Z,5.13
2018-09-09T18:55:31.273Z,5.53
2018-09-09T18:58:00.713Z,5.50
2018-09-09T19:00:29.177Z,5.00
2018-09-09T19:02:57.525Z,6.20
2018-09-09T19:05:25.805Z,5.20
2018-09-09T19:07:54.097Z,5.43
2018-09-09T19:10:22.525Z,5.13
2018-09-09T19:12:50.813Z,5.37
2018-09-09T19:15:20.215Z,5.10
2018-09-09T19:17:48.489Z,4.10
2018-09-09T19:20:16.801Z,4.83
2018-09-09T19:22:45.069Z,5.30
2018-09-09T19:25:13.373Z,4.77
2018-09-09T19:27:41.650Z,4.90
2018-09-09T19:30:09.974Z,4.47
2018-09-09T19:32:38.249Z,6.03
2018-09-09T19:35:06.542Z,4.87
2018-09-09T19:37:34.850Z,4.77
2018-09-09T19:40:03.252Z,5.00
2018-09-09T19:42:35.604Z,5.27
2018-09-09T19:45:04.951Z,5.20
2018-09-09T19:47:33.287Z,5.40
2018-09-09T19:50:02.297Z,5.63
2018-09-09T19:52:30.598Z,5.30
2018-09-09T19:54:59.061Z,4.80
2018-09-09T19:57:27.364Z,5.00
2018-09-09T19:59:55.915Z,5.00
2018-09-09T20:02:24.597Z,4.40
2018-09-09T20:04:53.232Z,4.50
2018-09-09T20:07:21.492Z,5.63
2018-09-09T20:09:49.770Z,4.43
2018-09-09T20:12:18.073Z,4.27
2018-09-09T20:14:46.714Z,5.00
2018-09-09T20:17:15.415Z,4.27
2018-09-09T20:19:43.658Z,5.20
2018-09-09T20:22:12.585Z,5.77
2018-09-09T20:24:41.254Z,5.47
2018-09-09T20:27:09.581Z,5.17
2018-09-09T20:29:37.893Z,4.70
2018-09-09T20:32:06.202Z,6.07
2018-09-09T20:34:34.536Z,6.57
2018-09-09T20:37:02.862Z,6.27
2018-09-09T20:39:31.134Z,4.80
2018-09-09T20:41:59.461Z,6.92
2018-09-09T20:44:27.793Z,4.83
2018-09-09T20:46:56.113Z,5.03
2018-09-09T20:49:24.390Z,4.80
2018-09-09T20:51:52.694Z,5.20
2018-09-09T20:54:20.968Z,4.23
2018-09-09T20:56:49.297Z,4.37
2018-09-09T20:59:17.581Z,5.27
2018-09-09T21:01:45.873Z,5.03
2018-09-09T21:04:14.236Z,4.70
2018-09-09T21:06:42.525Z,4.57
2018-09-09T21:09:12.165Z,4.50
2018-09-09T21:11:40.450Z,4.67
2018-09-09T21:14:09.221Z,4.70
2018-09-09T21:16:37.587Z,4.17
2018-09-09T21:19:06.833Z,3.50
2018-09-09T21:21:35.666Z,3.90
2018-09-09T21:24:04.011Z,3.80
2018-09-09T21:26:32.423Z,4.45
2018-09-09T21:29:01.149Z,5.10
2018-09-09T21:31:29.557Z,4.17
2018-09-09T21:33:57.897Z,5.40
2018-09-09T21:36:26.317Z,4.23
2018-09-09T21:38:54.680Z,4.03
2018-09-09T21:41:22.953Z,4.03
2018-09-09T21:43:51.259Z,4.27
2018-09-09T21:46:19.582Z,4.03
2018-09-09T21:48:47.897Z,4.00
2018-09-09T21:51:17.201Z,5.07
2018-09-09T21:53:45.624Z,5.37
2018-09-09T21:56:13.941Z,4.57
2018-09-09T21:58:42.293Z,5.20
2018-09-09T22:01:15.706Z,4.47
2018-09-09T22:03:45.180Z,4.40
2018-09-09T22:06:15.653Z,4.37
2018-09-09T22:08:43.997Z,4.30
2018-09-09T22:11:12.333Z,4.30
2018-09-09T22:13:40.658Z,4.13
2018-09-09T22:16:09.014Z,4.20
2018-09-09T22:18:37.525Z,5.13
2018-09-09T22:21:06.033Z,4.53
2018-09-09T22:23:34.361Z,3.87
2018-09-09T22:26:03.617Z,4.40
2018-09-09T22:28:31.919Z,4.20
2018-09-09T22:31:00.229Z,4.33
2018-09-09T22:33:28.764Z,3.80
2018-09-09T22:35:57.066Z,4.10
2018-09-09T22:38:26.517Z,4.07
2018-09-09T22:40:54.801Z,4.10
2018-09-09T22:43:23.057Z,4.20
2018-09-09T22:45:55.609Z,4.03
2018-09-09T22:48:23.902Z,4.33
2018-09-09T22:50:52.864Z,3.53
2018-09-09T22:53:21.236Z,4.70
2018-09-09T22:55:49.604Z,3.70
2018-09-09T22:58:19.389Z,3.90
2018-09-09T23:00:47.653Z,4.20
2018-09-09T23:03:16.005Z,4.03
2018-09-09T23:05:44.281Z,5.20
2018-09-09T23:08:12.743Z,4.30
2018-09-09T23:10:41.343Z,4.00
2018-09-09T23:13:09.677Z,3.70
2018-09-09T23:15:37.997Z,4.70
2018-09-09T23:18:06.331Z,3.83
2018-09-09T23:20:35.617Z,4.10
2018-09-09T23:23:05.009Z,4.17
2018-09-09T23:25:33.305Z,4.40
2018-09-09T23:28:01.656Z,3.43
2018-09-09T23:30:29.950Z,4.23
2018-09-09T23:32:58.409Z,3.60
2018-09-09T23:35:26.683Z,3.83
2018-09-09T23:37:55.007Z,3.50
2018-09-09T23:40:23.288Z,3.73
2018-09-09T23:42:51.605Z,4.07
2018-09-09T23:45:19.909Z,3.20
2018-09-09T23:47:48.186Z,3.77
2018-09-09T23:50:16.501Z,3.70
2018-09-09T23:52:44.775Z,4.10
2018-09-09T23:55:13.076Z,3.47
2018-09-09T23:57:41.347Z,3.97
